createdAt,value
2023-01-17T00:00:23.676Z,0.90
2023-01-17T00:03:51.725Z,1.00
2023-01-17T00:06:57.884Z,0.67
2023-01-17T00:10:23.764Z,1.07
2023-01-17T00:13:26.694Z,0.97
2023-01-17T00:16:39.707Z,0.90
2023-01-17T00:19:45.678Z,0.77
2023-01-17T00:23:15.384Z,1.00
2023-01-17T00:26:29.742Z,0.90
2023-01-17T00:29:28.970Z,1.00
2023-01-17T00:32:16.055Z,0.20
2023-01-17T00:35:16.035Z,0.70
2023-01-17T00:38:15.772Z,0.80
2023-01-17T00:41:28.769Z,0.67
2023-01-17T00:44:34.283Z,0.70
2023-01-17T00:47:55.209Z,0.70
2023-01-17T00:50:59.703Z,0.60
2023-01-17T00:54:19.041Z,0.60
2023-01-17T00:57:37.552Z,0.70
2023-01-17T01:00:56.002Z,1.00
2023-01-17T01:04:04.859Z,0.60
2023-01-17T01:07:34.484Z,0.30
2023-01-17T01:10:41.038Z,0.57
2023-01-17T01:14:13.360Z,0.57
2023-01-17T01:17:19.693Z,0.27
2023-01-17T01:20:37.720Z,0.57
2023-01-17T01:23:43.815Z,0.40
2023-01-17T01:27:01.343Z,0.20
2023-01-17T01:30:20.663Z,0.10
2023-01-17T01:33:20.219Z,0.20
2023-01-17T01:36:31.917Z,0.20
2023-01-17T01:39:43.980Z,0.30
2023-01-17T01:42:44.007Z,0.50
2023-01-17T01:46:12.993Z,0.20
2023-01-17T01:49:25.057Z,0.20
2023-01-17T01:52:49.981Z,0.40
2023-01-17T01:56:02.023Z,0.23
2023-01-17T01:59:25.998Z,0.20
2023-01-17T02:02:52.005Z,0.20
2023-01-17T02:06:16.025Z,0.30
2023-01-17T02:09:28.100Z,0.40
2023-01-17T02:12:52.078Z,0.20
2023-01-17T02:16:19.120Z,0.33
2023-01-17T02:19:56.147Z,0.53
2023-01-17T02:23:42.084Z,0.60
2023-01-17T02:27:13.130Z,0.40
2023-01-17T02:30:32.110Z,0.30
2023-01-17T02:34:01.117Z,0.60
2023-01-17T02:37:13.126Z,0.13
2023-01-17T02:40:37.137Z,0.57
2023-01-17T02:43:49.147Z,0.00
2023-01-17T02:47:13.223Z,0.15
2023-01-17T02:50:27.220Z,0.50
2023-01-17T02:53:55.249Z,0.40
2023-01-17T02:57:09.235Z,0.47
2023-01-17T03:00:34.186Z,0.63
2023-01-17T03:03:49.228Z,0.83
2023-01-17T03:07:15.266Z,0.43
2023-01-17T03:10:27.207Z,0.35
2023-01-17T03:13:40.228Z,0.20
2023-01-17T03:16:52.315Z,0.27
2023-01-17T03:20:07.237Z,0.40
2023-01-17T03:23:21.258Z,0.40
2023-01-17T03:26:33.289Z,0.25
2023-01-17T03:29:33.371Z,0.15
2023-01-17T03:32:48.363Z,0.30
2023-01-17T03:35:48.331Z,0.40
2023-01-17T03:39:14.314Z,0.23
2023-01-17T03:42:14.387Z,0.30
2023-01-17T03:45:41.457Z,0.60
2023-01-17T03:48:41.349Z,0.40
2023-01-17T03:51:53.424Z,0.35
2023-01-17T03:55:07.378Z,0.40
2023-01-17T03:58:25.470Z,0.30
2023-01-17T04:01:37.512Z,0.47
2023-01-17T04:04:50.411Z,0.27
2023-01-17T04:08:05.386Z,0.37
2023-01-17T04:11:31.604Z,0.40
2023-01-17T04:14:43.475Z,0.30
2023-01-17T04:18:13.478Z,0.40
2023-01-17T04:21:16.485Z,0.40
2023-01-17T04:24:28.476Z,0.20
2023-01-17T04:27:42.462Z,0.20
2023-01-17T04:30:55.478Z,0.50
2023-01-17T04:34:07.481Z,0.30
2023-01-17T04:37:19.521Z,0.40
2023-01-17T04:40:32.577Z,0.30
2023-01-17T04:43:59.569Z,0.63
2023-01-17T04:46:59.557Z,0.30
2023-01-17T04:50:11.606Z,0.80
2023-01-17T04:53:11.572Z,0.20
2023-01-17T04:56:38.570Z,0.40
2023-01-17T04:59:52.568Z,0.53
2023-01-17T05:03:05.572Z,0.40
2023-01-17T05:06:05.582Z,0.53
2023-01-17T05:09:17.659Z,0.17
2023-01-17T05:12:17.598Z,0.30
2023-01-17T05:15:43.868Z,0.33
2023-01-17T05:18:43.609Z,0.23
2023-01-17T05:21:56.692Z,0.60
2023-01-17T05:25:08.658Z,0.80
2023-01-17T05:28:23.706Z,0.10
2023-01-17T05:31:37.663Z,0.45
2023-01-17T05:34:49.666Z,0.40
2023-01-17T05:37:49.706Z,0.40
2023-01-17T05:41:13.735Z,0.60
2023-01-17T05:44:13.679Z,0.23
2023-01-17T05:47:39.750Z,0.20
2023-01-17T05:50:51.684Z,0.50
2023-01-17T05:54:03.729Z,0.50
2023-01-17T05:57:03.809Z,0.40
2023-01-17T06:00:27.765Z,0.40
2023-01-17T06:03:53.792Z,0.40
2023-01-17T06:06:53.791Z,0.30
2023-01-17T06:10:05.777Z,0.60
2023-01-17T06:13:25.837Z,0.37
2023-01-17T06:16:40.905Z,0.10
2023-01-17T06:19:54.776Z,0.30
2023-01-17T06:23:06.852Z,0.53
2023-01-17T06:26:05.802Z,0.50
2023-01-17T06:29:18.831Z,0.50
2023-01-17T06:32:18.891Z,0.70
2023-01-17T06:35:43.854Z,0.60
2023-01-17T06:38:43.844Z,0.37
2023-01-17T06:41:55.909Z,0.77
2023-01-17T06:44:55.936Z,0.70
2023-01-17T06:48:19.906Z,0.40
2023-01-17T06:51:33.876Z,0.50
2023-01-17T06:54:49.849Z,0.50
2023-01-17T06:57:48.952Z,0.40
2023-01-17T07:01:17.064Z,0.37
2023-01-17T07:04:29.028Z,0.50
2023-01-17T07:07:55.022Z,0.35
2023-01-17T07:10:55.172Z,0.85
2023-01-17T07:14:07.010Z,0.57
2023-01-17T07:17:18.980Z,0.30
2023-01-17T07:20:44.017Z,0.63
2023-01-17T07:24:01.037Z,0.87
2023-01-17T07:27:13.080Z,0.40
2023-01-17T07:30:13.062Z,0.47
2023-01-17T07:33:25.019Z,0.60
2023-01-17T07:36:25.021Z,0.63
2023-01-17T07:39:51.046Z,0.30
2023-01-17T07:42:51.100Z,0.33
2023-01-17T07:46:15.105Z,0.43
2023-01-17T07:49:27.122Z,0.80
2023-01-17T07:52:52.104Z,0.15
2023-01-17T07:56:05.169Z,0.70
2023-01-17T07:59:18.135Z,0.57
2023-01-17T08:02:18.167Z,0.73
2023-01-17T08:05:31.226Z,0.53
2023-01-17T08:08:31.159Z,0.20
2023-01-17T08:11:56.225Z,0.50
2023-01-17T08:14:56.166Z,0.70
2023-01-17T08:18:08.164Z,0.60
2023-01-17T08:21:08.167Z,0.53
2023-01-17T08:24:36.217Z,0.40
2023-01-17T08:27:50.236Z,0.50
2023-01-17T08:31:02.378Z,0.80
2023-01-17T08:34:02.255Z,0.60
2023-01-17T08:37:14.248Z,0.50
2023-01-17T08:40:14.226Z,0.77
2023-01-17T08:43:43.366Z,0.53
2023-01-17T08:46:43.301Z,0.63
2023-01-17T08:49:55.306Z,0.77
2023-01-17T08:52:55.253Z,0.70
2023-01-17T08:56:25.363Z,1.00
2023-01-17T08:59:39.322Z,0.57
2023-01-17T09:03:03.318Z,0.60
2023-01-17T09:06:03.296Z,1.03
2023-01-17T09:09:15.374Z,1.10
2023-01-17T09:12:15.402Z,0.85
2023-01-17T09:15:43.328Z,0.97
2023-01-17T09:18:58.358Z,1.33
2023-01-17T09:22:10.373Z,0.87
2023-01-17T09:25:10.375Z,1.00
2023-01-17T09:28:24.433Z,0.70
2023-01-17T09:31:37.390Z,1.65
2023-01-17T09:34:49.435Z,0.70
2023-01-17T09:38:01.449Z,1.00
2023-01-17T09:41:25.469Z,0.87
2023-01-17T09:44:39.429Z,1.13
2023-01-17T09:48:06.448Z,1.00
2023-01-17T09:51:18.510Z,0.90
2023-01-17T09:54:43.482Z,0.95
2023-01-17T09:57:59.546Z,0.90
2023-01-17T10:01:25.674Z,1.13
2023-01-17T10:04:54.635Z,0.77
2023-01-17T10:08:10.497Z,1.20
2023-01-17T10:11:39.563Z,0.97
2023-01-17T10:14:54.556Z,1.05
2023-01-17T10:18:29.263Z,0.77
2023-01-17T10:21:32.527Z,1.40
2023-01-17T10:25:02.582Z,1.20
2023-01-17T10:28:16.618Z,1.20
2023-01-17T10:31:40.610Z,1.13
2023-01-17T10:34:52.604Z,1.20
2023-01-17T10:38:18.568Z,1.37
2023-01-17T10:41:31.677Z,1.10
2023-01-17T10:44:56.675Z,1.33
2023-01-17T10:48:08.651Z,1.30
2023-01-17T10:51:33.637Z,1.60
2023-01-17T10:54:49.696Z,1.00
2023-01-17T10:58:14.709Z,1.05
2023-01-17T11:01:26.816Z,1.00
2023-01-17T11:04:54.728Z,1.63
2023-01-17T11:08:06.715Z,1.23
2023-01-17T11:11:33.677Z,1.00
2023-01-17T11:14:45.721Z,1.77
2023-01-17T11:18:09.714Z,1.40
2023-01-17T11:21:31.781Z,1.33
2023-01-17T11:24:56.731Z,1.20
2023-01-17T11:28:25.869Z,1.27
2023-01-17T11:31:49.753Z,1.35
2023-01-17T11:34:52.812Z,1.40
2023-01-17T11:38:17.823Z,1.07
2023-01-17T11:41:32.830Z,1.33
2023-01-17T11:44:58.854Z,1.40
2023-01-17T11:47:58.857Z,1.40
2023-01-17T11:51:22.874Z,1.30
2023-01-17T11:54:37.852Z,1.40
2023-01-17T11:57:50.848Z,1.07
2023-01-17T12:01:04.906Z,1.37
2023-01-17T12:04:36.550Z,1.10
2023-01-17T12:07:48.833Z,1.40
2023-01-17T12:11:13.872Z,1.43
2023-01-17T12:14:13.088Z,1.10
2023-01-17T12:17:31.159Z,1.50
2023-01-17T12:20:46.945Z,1.20
2023-01-17T12:24:26.917Z,1.40
2023-01-17T12:27:39.011Z,1.60
2023-01-17T12:31:07.997Z,1.30
2023-01-17T12:34:22.014Z,1.20
2023-01-17T12:37:52.696Z,0.90
2023-01-17T12:41:00.062Z,1.33
2023-01-17T12:44:25.004Z,1.20
2023-01-17T12:47:37.220Z,1.30
2023-01-17T12:51:03.081Z,1.20
2023-01-17T12:54:15.068Z,1.40
2023-01-17T12:57:39.125Z,1.10
2023-01-17T13:00:51.108Z,1.23
2023-01-17T13:04:18.096Z,1.40
2023-01-17T13:07:33.094Z,1.10
2023-01-17T13:10:58.102Z,1.23
2023-01-17T13:14:10.071Z,1.30
2023-01-17T13:17:36.145Z,1.40
2023-01-17T13:20:48.096Z,1.00
2023-01-17T13:24:20.118Z,1.33
2023-01-17T13:27:41.137Z,1.27
2023-01-17T13:31:13.347Z,1.40
2023-01-17T13:34:30.124Z,1.37
2023-01-17T13:38:00.190Z,1.40
2023-01-17T13:41:16.226Z,1.07
2023-01-17T13:44:40.180Z,1.10
2023-01-17T13:48:06.238Z,1.10
2023-01-17T13:51:31.179Z,1.20
2023-01-17T13:54:54.239Z,1.30
2023-01-17T13:58:23.314Z,0.90
2023-01-17T14:01:36.349Z,1.30
2023-01-17T14:05:07.262Z,0.90
2023-01-17T14:08:19.279Z,1.33
2023-01-17T14:11:48.389Z,1.00
2023-01-17T14:15:02.357Z,1.27
2023-01-17T14:18:26.277Z,1.10
2023-01-17T14:21:38.371Z,1.40
2023-01-17T14:25:05.304Z,1.00
2023-01-17T14:28:17.322Z,1.10
2023-01-17T14:31:43.342Z,1.10
2023-01-17T14:34:43.313Z,1.37
2023-01-17T14:38:09.355Z,0.90
2023-01-17T14:41:21.363Z,0.90
2023-01-17T14:44:36.393Z,1.00
2023-01-17T14:47:50.356Z,1.10
2023-01-17T14:51:15.456Z,1.33
2023-01-17T14:54:30.399Z,1.50
2023-01-17T14:57:43.455Z,1.13
2023-01-17T15:00:55.508Z,1.17
2023-01-17T15:04:20.404Z,0.70
2023-01-17T15:07:36.466Z,0.70
2023-01-17T15:11:01.543Z,1.10
2023-01-17T15:14:16.453Z,0.93
2023-01-17T15:17:41.434Z,0.90
2023-01-17T15:20:54.470Z,0.85
2023-01-17T15:24:18.503Z,1.60
2023-01-17T15:27:30.505Z,1.17
2023-01-17T15:30:42.544Z,0.97
2023-01-17T15:33:54.581Z,1.20
2023-01-17T15:37:21.529Z,0.70
2023-01-17T15:40:36.539Z,0.70
2023-01-17T15:44:03.560Z,0.60
2023-01-17T15:47:15.558Z,0.87
2023-01-17T15:50:50.575Z,0.70
2023-01-17T15:54:03.586Z,0.93
2023-01-17T15:57:30.611Z,1.20
2023-01-17T16:00:45.709Z,1.10
2023-01-17T16:04:18.625Z,1.10
2023-01-17T16:07:34.656Z,1.10
2023-01-17T16:11:00.665Z,1.00
2023-01-17T16:14:00.705Z,0.73
2023-01-17T16:17:16.631Z,1.00
2023-01-17T16:20:29.691Z,1.25
2023-01-17T16:23:41.701Z,0.90
2023-01-17T16:26:55.677Z,0.90
2023-01-17T16:30:07.727Z,1.17
2023-01-17T16:33:19.695Z,1.00
2023-01-17T16:36:44.692Z,1.00
2023-01-17T16:39:44.708Z,0.95
2023-01-17T16:43:13.747Z,1.00
2023-01-17T16:46:13.771Z,0.83
2023-01-17T16:49:26.748Z,1.77
2023-01-17T16:52:26.855Z,0.80
2023-01-17T16:55:50.835Z,1.00
2023-01-17T16:59:10.788Z,1.10
2023-01-17T17:02:34.890Z,0.90
2023-01-17T17:05:34.836Z,0.70
2023-01-17T17:09:02.831Z,0.87
2023-01-17T17:12:02.883Z,1.23
2023-01-17T17:15:28.800Z,1.30
2023-01-17T17:18:40.817Z,1.10
2023-01-17T17:21:53.853Z,1.00
2023-01-17T17:24:53.853Z,0.90
2023-01-17T17:28:09.872Z,1.10
2023-01-17T17:31:32.008Z,1.27
2023-01-17T17:34:43.938Z,1.30
2023-01-17T17:37:43.900Z,1.10
2023-01-17T17:40:57.886Z,1.30
2023-01-17T17:43:58.018Z,1.50
2023-01-17T17:47:26.005Z,1.60
2023-01-17T17:50:25.971Z,1.20
2023-01-17T17:53:53.032Z,1.07
2023-01-17T17:57:04.922Z,0.90
2023-01-17T18:00:30.049Z,1.70
2023-01-17T18:04:00.036Z,1.50
2023-01-17T18:07:00.020Z,1.50
2023-01-17T18:10:11.995Z,1.40
2023-01-17T18:13:23.989Z,1.40
2023-01-17T18:16:48.084Z,1.15
2023-01-17T18:20:07.646Z,1.40
2023-01-17T18:23:18.098Z,1.33
2023-01-17T18:26:30.029Z,1.00
2023-01-17T18:29:42.102Z,1.37
2023-01-17T18:32:42.097Z,1.97
2023-01-17T18:36:08.052Z,1.50
2023-01-17T18:39:23.092Z,1.53
2023-01-17T18:42:35.083Z,1.47
2023-01-17T18:45:35.116Z,1.43
2023-01-17T18:48:59.165Z,1.67
2023-01-17T18:52:13.193Z,1.13
2023-01-17T18:55:25.201Z,1.70
2023-01-17T18:58:25.179Z,1.33
2023-01-17T19:01:49.167Z,1.50
2023-01-17T19:05:01.133Z,1.43
2023-01-17T19:08:27.182Z,1.40
2023-01-17T19:11:27.158Z,1.60
2023-01-17T19:14:39.173Z,1.60
2023-01-17T19:17:42.258Z,1.30
2023-01-17T19:20:54.170Z,1.50
2023-01-17T19:24:08.305Z,1.40
2023-01-17T19:27:20.200Z,1.37
2023-01-17T19:30:33.253Z,1.60
2023-01-17T19:33:58.248Z,1.37
2023-01-17T19:37:01.307Z,1.65
2023-01-17T19:40:27.260Z,1.50
2023-01-17T19:43:27.323Z,1.17
2023-01-17T19:46:52.293Z,1.60
2023-01-17T19:49:53.290Z,2.13
2023-01-17T19:53:06.378Z,1.30
2023-01-17T19:56:20.340Z,2.40
2023-01-17T19:59:33.334Z,1.40
2023-01-17T20:02:33.430Z,1.75
2023-01-17T20:05:48.386Z,1.40
2023-01-17T20:09:00.375Z,1.50
2023-01-17T20:12:27.415Z,1.83
2023-01-17T20:15:42.428Z,1.50
2023-01-17T20:19:07.434Z,2.10
2023-01-17T20:22:07.428Z,1.67
2023-01-17T20:25:21.443Z,2.75
2023-01-17T20:28:35.438Z,1.70
2023-01-17T20:32:00.574Z,2.10
2023-01-17T20:35:00.438Z,1.80
2023-01-17T20:38:13.487Z,1.80
2023-01-17T20:41:13.471Z,2.10
2023-01-17T20:44:39.418Z,2.17
2023-01-17T20:47:39.476Z,1.90
2023-01-17T20:50:51.471Z,1.30
2023-01-17T20:54:03.511Z,1.90
2023-01-17T20:57:15.602Z,2.07
2023-01-17T21:00:29.634Z,1.77
2023-01-17T21:03:53.496Z,2.00
2023-01-17T21:07:05.557Z,2.00
2023-01-17T21:10:18.626Z,1.90
2023-01-17T21:13:18.586Z,2.00
2023-01-17T21:16:44.715Z,1.90
2023-01-17T21:19:44.650Z,2.07
2023-01-17T21:22:56.567Z,1.63
2023-01-17T21:26:08.585Z,1.70
2023-01-17T21:29:32.595Z,1.80
2023-01-17T21:32:46.641Z,1.70
2023-01-17T21:36:10.644Z,1.90
2023-01-17T21:39:26.690Z,1.77
2023-01-17T21:42:38.651Z,1.57
2023-01-17T21:45:50.791Z,1.60
2023-01-17T21:49:16.689Z,2.07
2023-01-17T21:52:31.717Z,2.10
2023-01-17T21:55:58.220Z,1.70
2023-01-17T21:59:10.683Z,1.70
2023-01-17T22:02:24.785Z,1.87
2023-01-17T22:05:51.775Z,1.90
2023-01-17T22:08:51.840Z,1.70
2023-01-17T22:12:04.760Z,1.70
2023-01-17T22:15:05.771Z,1.75
2023-01-17T22:18:17.745Z,1.80
2023-01-17T22:21:31.790Z,2.00
2023-01-17T22:24:43.837Z,1.85
2023-01-17T22:27:44.846Z,1.93
2023-01-17T22:30:56.867Z,1.90
2023-01-17T22:34:08.888Z,1.55
2023-01-17T22:37:35.862Z,1.90
2023-01-17T22:40:36.884Z,1.80
2023-01-17T22:44:00.822Z,1.80
2023-01-17T22:47:00.837Z,2.07
2023-01-17T22:50:12.904Z,1.80
2023-01-17T22:53:26.915Z,2.00
2023-01-17T22:56:50.884Z,1.63
2023-01-17T22:59:50.929Z,2.03
2023-01-17T23:03:02.979Z,1.87
2023-01-17T23:06:02.974Z,2.20
2023-01-17T23:09:47.898Z,1.95
2023-01-17T23:12:48.005Z,1.80
2023-01-17T23:16:05.828Z,2.03
2023-01-17T23:19:08.478Z,1.67
2023-01-17T23:22:33.035Z,1.77
2023-01-17T23:25:57.982Z,1.90
2023-01-17T23:28:57.397Z,1.95
2023-01-17T23:31:57.991Z,2.03
2023-01-17T23:35:10.054Z,1.87
2023-01-17T23:38:42.003Z,1.97
2023-01-17T23:42:14.982Z,1.90
2023-01-17T23:45:15.067Z,1.67
2023-01-17T23:48:42.091Z,1.65
2023-01-17T23:51:54.108Z,1.80
2023-01-17T23:55:06.062Z,1.37
2023-01-17T23:58:20.102Z,1.50
